Terminal Aerodrome Forecast
Issued by NWS Missoula, MT

Home | Current Version | Previous Version | Text Only | Print | Product List | Glossary On
Versions: 1 2 3 4 5 6 7 8 9 10 11 12 13 14 15
000
FTUS45 KMSO 260539
TAFGPI
TAF
KGPI 260539Z 2606/2706 VRB05KT P6SM VCSH FEW030 OVC060
     FM261230 15005KT 5SM -RA BKN015 OVC025
     FM262000 16012KT P6SM VCSH BKN040=

USA.gov is the U.S. government's official web portal to all federal, state and local government web resources and services.